createdAt,value
2023-02-22T00:01:38.062Z,9.89
2023-02-22T00:04:07.197Z,10.46
2023-02-22T00:06:34.657Z,9.69
2023-02-22T00:09:04.957Z,9.89
2023-02-22T00:11:35.561Z,10.16
2023-02-22T00:14:02.987Z,10.13
2023-02-22T00:16:31.122Z,10.12
2023-02-22T00:18:58.969Z,9.89
2023-02-22T00:21:26.380Z,9.80
2023-02-22T00:23:54.748Z,9.60
2023-02-22T00:26:23.496Z,9.65
2023-02-22T00:28:53.209Z,9.38
2023-02-22T00:31:21.420Z,8.85
2023-02-22T00:33:51.185Z,9.15
2023-02-22T00:36:18.970Z,9.26
2023-02-22T00:38:46.468Z,9.37
2023-02-22T00:41:15.760Z,9.73
2023-02-22T00:43:43.272Z,9.58
2023-02-22T00:46:10.802Z,10.30
2023-02-22T00:48:38.554Z,10.85
2023-02-22T00:51:06.756Z,11.09
2023-02-22T00:53:34.180Z,10.63
2023-02-22T00:56:01.972Z,12.24
2023-02-22T00:58:29.465Z,12.70
2023-02-22T01:00:58.323Z,13.90
2023-02-22T01:03:26.059Z,14.85
2023-02-22T01:05:53.687Z,15.99
2023-02-22T01:08:21.189Z,13.13
2023-02-22T01:10:49.713Z,11.07
2023-02-22T01:13:19.201Z,10.62
2023-02-22T01:15:46.982Z,10.53
2023-02-22T01:18:17.361Z,9.60
2023-02-22T01:20:48.123Z,9.64
2023-02-22T01:23:17.481Z,11.31
2023-02-22T01:25:45.105Z,13.76
2023-02-22T01:28:15.296Z,14.65
2023-02-22T01:30:43.158Z,15.37
2023-02-22T01:33:12.848Z,15.62
2023-02-22T01:35:42.936Z,15.10
2023-02-22T01:38:10.737Z,15.40
2023-02-22T01:40:42.593Z,13.54
2023-02-22T01:43:25.640Z,11.01
2023-02-22T01:45:55.759Z,10.29
2023-02-22T01:48:42.523Z,11.95
2023-02-22T01:51:17.189Z,13.81
2023-02-22T01:53:58.451Z,14.78
2023-02-22T01:56:28.218Z,14.92
2023-02-22T01:59:02.439Z,12.82
2023-02-22T02:01:30.377Z,13.31
2023-02-22T02:04:00.892Z,10.29
2023-02-22T02:06:32.371Z,10.29
2023-02-22T02:09:04.031Z,10.46
2023-02-22T02:11:32.679Z,10.40
2023-02-22T02:14:00.529Z,11.60
2023-02-22T02:16:39.008Z,12.23
2023-02-22T02:19:16.818Z,12.62
2023-02-22T02:22:10.463Z,12.61
2023-02-22T02:24:50.414Z,13.43
2023-02-22T02:27:28.605Z,13.43
2023-02-22T02:30:41.861Z,12.86
2023-02-22T02:33:15.834Z,13.21
2023-02-22T02:36:25.036Z,9.74
2023-02-22T02:39:01.798Z,12.27
2023-02-22T02:41:56.077Z,12.48
2023-02-22T02:44:45.633Z,12.72
2023-02-22T02:47:17.980Z,12.92
2023-02-22T02:49:55.354Z,13.64
2023-02-22T02:52:24.818Z,13.75
2023-02-22T02:54:52.367Z,13.97
2023-02-22T02:57:19.794Z,14.13
2023-02-22T02:59:47.533Z,13.35
2023-02-22T03:02:56.331Z,12.96
2023-02-22T03:05:59.524Z,12.06
2023-02-22T03:08:26.918Z,12.75
2023-02-22T03:11:14.944Z,13.06
2023-02-22T03:14:25.591Z,13.66
2023-02-22T03:17:00.838Z,15.00
2023-02-22T03:19:38.752Z,14.09
2023-02-22T03:22:06.413Z,13.95
2023-02-22T03:25:08.811Z,14.92
2023-02-22T03:27:47.672Z,13.44
2023-02-22T03:30:24.565Z,13.20
2023-02-22T03:33:09.360Z,13.21
2023-02-22T03:35:50.117Z,12.73
2023-02-22T03:38:20.361Z,11.85
2023-02-22T03:40:51.115Z,11.21
2023-02-22T03:43:23.217Z,10.45
2023-02-22T03:45:51.864Z,10.37
2023-02-22T03:48:46.881Z,10.25
2023-02-22T03:51:16.876Z,9.43
2023-02-22T03:53:45.505Z,9.10
2023-02-22T03:56:20.114Z,9.49
2023-02-22T03:58:48.938Z,9.24
2023-02-22T04:01:17.379Z,10.17
2023-02-22T04:03:45.459Z,11.09
2023-02-22T04:06:12.979Z,11.49
2023-02-22T04:08:40.615Z,11.87
2023-02-22T04:11:08.465Z,12.08
2023-02-22T04:13:35.894Z,11.71
2023-02-22T04:16:03.432Z,12.42
2023-02-22T04:18:31.989Z,11.33
2023-02-22T04:21:00.494Z,11.17
2023-02-22T04:23:28.799Z,10.35
2023-02-22T04:25:56.627Z,9.41
2023-02-22T04:28:24.093Z,9.48
2023-02-22T04:30:51.909Z,9.77
2023-02-22T04:33:20.973Z,9.51
2023-02-22T04:35:48.442Z,9.66
2023-02-22T04:38:15.854Z,10.04
2023-02-22T04:40:43.654Z,9.96
2023-02-22T04:43:11.227Z,9.69
2023-02-22T04:45:39.848Z,9.32
2023-02-22T04:48:08.362Z,9.40
2023-02-22T04:50:36.148Z,9.69
2023-02-22T04:53:04.044Z,9.97
2023-02-22T04:55:31.956Z,9.98
2023-02-22T04:57:59.395Z,10.58
2023-02-22T05:00:27.127Z,10.53
2023-02-22T05:02:56.416Z,10.89
2023-02-22T05:05:23.995Z,9.68
2023-02-22T05:07:51.479Z,10.18
2023-02-22T05:10:19.422Z,10.67
2023-02-22T05:12:47.034Z,10.72
2023-02-22T05:15:19.696Z,10.26
2023-02-22T05:17:47.946Z,9.86
2023-02-22T05:20:27.333Z,9.70
2023-02-22T05:22:56.332Z,9.34
2023-02-22T05:25:24.964Z,9.96
2023-02-22T05:28:04.981Z,10.39
2023-02-22T05:30:35.011Z,9.99
2023-02-22T05:33:02.801Z,10.21
2023-02-22T05:35:30.409Z,9.46
2023-02-22T05:38:01.880Z,10.22
2023-02-22T05:40:30.443Z,9.97
2023-02-22T05:42:58.362Z,9.75
2023-02-22T05:45:27.409Z,9.32
2023-02-22T05:47:55.114Z,9.83
2023-02-22T05:50:23.012Z,9.20
2023-02-22T05:52:50.500Z,9.50
2023-02-22T05:55:20.650Z,10.34
2023-02-22T05:57:48.630Z,9.69
2023-02-22T06:00:25.492Z,10.10
2023-02-22T06:03:04.448Z,10.63
2023-02-22T06:05:32.086Z,12.90
2023-02-22T06:08:01.751Z,13.06
2023-02-22T06:10:29.778Z,13.90
2023-02-22T06:12:58.264Z,13.28
2023-02-22T06:15:27.035Z,12.78
2023-02-22T06:17:55.871Z,12.20
2023-02-22T06:20:25.168Z,12.59
2023-02-22T06:22:54.803Z,9.79
2023-02-22T06:25:24.786Z,9.83
2023-02-22T06:27:52.391Z,10.21
2023-02-22T06:30:22.206Z,9.56
2023-02-22T06:32:50.025Z,9.72
2023-02-22T06:35:17.925Z,9.50
2023-02-22T06:37:45.735Z,9.68
2023-02-22T06:40:13.909Z,9.87
2023-02-22T06:42:41.714Z,10.27
2023-02-22T06:45:10.087Z,10.42
2023-02-22T06:47:43.674Z,9.91
2023-02-22T06:50:24.269Z,10.28
2023-02-22T06:52:52.041Z,10.35
2023-02-22T06:55:23.389Z,10.21
2023-02-22T06:57:51.728Z,11.02
2023-02-22T07:00:21.158Z,11.83
2023-02-22T07:02:49.289Z,10.61
2023-02-22T07:05:20.648Z,11.07
2023-02-22T07:07:49.996Z,11.73
2023-02-22T07:10:38.907Z,11.24
2023-02-22T07:13:07.844Z,11.26
2023-02-22T07:15:35.851Z,10.76
2023-02-22T07:18:03.819Z,11.27
2023-02-22T07:20:32.023Z,13.08
2023-02-22T07:23:00.057Z,14.75
2023-02-22T07:25:27.845Z,15.31
2023-02-22T07:27:55.262Z,14.29
2023-02-22T07:30:31.107Z,14.68
2023-02-22T07:33:00.512Z,13.80
2023-02-22T07:35:33.238Z,14.23
2023-02-22T07:38:00.735Z,11.11
2023-02-22T07:40:28.843Z,12.43
2023-02-22T07:43:00.052Z,10.73
2023-02-22T07:45:29.877Z,9.87
2023-02-22T07:47:58.308Z,10.07
2023-02-22T07:50:27.860Z,10.92
2023-02-22T07:52:56.959Z,10.26
2023-02-22T07:55:26.952Z,10.12
2023-02-22T07:57:57.497Z,12.05
2023-02-22T08:00:33.406Z,12.91
2023-02-22T08:03:03.538Z,13.25
2023-02-22T08:05:32.240Z,12.35
2023-02-22T08:07:59.988Z,12.53
2023-02-22T08:10:28.226Z,11.76
2023-02-22T08:12:56.068Z,12.71
2023-02-22T08:15:26.566Z,12.75
2023-02-22T08:17:55.440Z,12.70
2023-02-22T08:20:23.813Z,14.74
2023-02-22T08:22:52.093Z,15.06
2023-02-22T08:25:21.390Z,12.45
2023-02-22T08:27:48.924Z,14.78
2023-02-22T08:30:22.453Z,14.62
2023-02-22T08:32:51.418Z,15.35
2023-02-22T08:35:20.125Z,14.15
2023-02-22T08:37:50.022Z,15.38
2023-02-22T08:40:21.380Z,13.75
2023-02-22T08:42:49.327Z,12.89
2023-02-22T08:45:17.407Z,12.19
2023-02-22T08:47:45.368Z,14.96
2023-02-22T08:50:27.823Z,15.36
2023-02-22T08:52:58.714Z,14.44
2023-02-22T08:55:29.072Z,12.91
2023-02-22T08:57:56.953Z,13.84
2023-02-22T09:00:29.504Z,14.79
2023-02-22T09:02:57.202Z,14.72
2023-02-22T09:05:24.841Z,12.93
2023-02-22T09:07:52.321Z,14.66
2023-02-22T09:10:27.080Z,13.84
2023-02-22T09:12:58.104Z,15.27
2023-02-22T09:15:26.057Z,16.22
2023-02-22T09:17:53.984Z,14.45
2023-02-22T09:20:23.541Z,16.03
2023-02-22T09:22:51.818Z,16.40
2023-02-22T09:25:22.619Z,14.22
2023-02-22T09:27:51.932Z,13.29
2023-02-22T09:30:32.136Z,15.60
2023-02-22T09:33:11.419Z,13.80
2023-02-22T09:35:46.342Z,12.97
2023-02-22T09:38:26.099Z,12.45
2023-02-22T09:41:15.968Z,13.60
2023-02-22T09:43:54.195Z,12.92
2023-02-22T09:46:30.899Z,12.87
2023-02-22T09:49:05.514Z,13.16
2023-02-22T09:51:39.937Z,13.44
2023-02-22T09:54:14.710Z,13.13
2023-02-22T09:56:44.199Z,14.24
2023-02-22T09:59:13.417Z,13.67
2023-02-22T10:01:45.985Z,12.85
2023-02-22T10:04:23.697Z,14.16
2023-02-22T10:07:15.602Z,14.35
2023-02-22T10:09:44.115Z,16.54
2023-02-22T10:12:44.772Z,17.26
2023-02-22T10:15:34.425Z,14.34
2023-02-22T10:18:23.885Z,14.89
2023-02-22T10:20:57.953Z,16.99
2023-02-22T10:23:31.608Z,17.28
2023-02-22T10:26:12.423Z,17.06
2023-02-22T10:28:47.307Z,16.26
2023-02-22T10:31:22.864Z,16.87
2023-02-22T10:33:57.358Z,16.28
2023-02-22T10:36:25.648Z,14.68
2023-02-22T10:39:08.069Z,15.75
2023-02-22T10:41:39.189Z,16.08
2023-02-22T10:44:06.676Z,14.85
2023-02-22T10:46:35.315Z,15.72
2023-02-22T10:49:07.503Z,16.77
2023-02-22T10:51:35.349Z,17.02
2023-02-22T10:54:21.429Z,17.49
2023-02-22T10:56:50.700Z,17.80
2023-02-22T10:59:35.498Z,17.97
2023-02-22T11:02:08.741Z,15.67
2023-02-22T11:05:05.863Z,15.53
2023-02-22T11:07:37.261Z,16.93
2023-02-22T11:10:06.159Z,18.59
2023-02-22T11:12:34.216Z,14.94
2023-02-22T11:15:17.693Z,14.61
2023-02-22T11:17:45.873Z,14.38
2023-02-22T11:20:25.344Z,14.74
2023-02-22T11:22:54.754Z,15.79
2023-02-22T11:25:26.900Z,14.98
2023-02-22T11:27:54.397Z,14.66
2023-02-22T11:30:21.935Z,14.58
2023-02-22T11:32:50.697Z,15.34
2023-02-22T11:35:20.768Z,17.36
2023-02-22T11:37:48.097Z,18.24
2023-02-22T11:40:19.857Z,18.42
2023-02-22T11:42:49.332Z,18.83
2023-02-22T11:45:21.313Z,18.12
2023-02-22T11:47:59.049Z,19.81
2023-02-22T11:50:28.260Z,18.55
2023-02-22T11:53:50.361Z,19.70
2023-02-22T11:56:37.757Z,19.59
2023-02-22T11:59:18.803Z,16.16
2023-02-22T12:02:12.284Z,16.77
2023-02-22T12:04:44.778Z,15.13
2023-02-22T12:07:24.217Z,14.97
2023-02-22T12:09:53.295Z,14.58
2023-02-22T12:12:27.519Z,14.35
2023-02-22T12:15:14.335Z,14.64
2023-02-22T12:17:59.346Z,15.39
2023-02-22T12:20:31.001Z,16.68
2023-02-22T12:23:02.724Z,17.47
2023-02-22T12:25:38.903Z,18.70
2023-02-22T12:28:23.700Z,19.33
2023-02-22T12:31:11.911Z,17.75
2023-02-22T12:33:45.214Z,17.67
2023-02-22T12:36:14.078Z,18.63
2023-02-22T12:38:44.386Z,19.08
2023-02-22T12:41:27.083Z,19.45
2023-02-22T12:44:06.909Z,19.58
2023-02-22T12:46:37.825Z,19.79
2023-02-22T12:49:17.820Z,19.24
2023-02-22T12:51:49.865Z,18.89
2023-02-22T12:54:42.101Z,19.02
2023-02-22T12:57:35.197Z,18.19
2023-02-22T13:00:11.373Z,18.11
2023-02-22T13:02:44.965Z,19.13
2023-02-22T13:05:20.850Z,20.18
2023-02-22T13:07:51.237Z,19.21
2023-02-22T13:10:18.993Z,16.60
2023-02-22T13:12:51.364Z,18.36
2023-02-22T13:15:29.175Z,19.30
2023-02-22T13:18:17.487Z,19.52
2023-02-22T13:21:02.804Z,19.55
2023-02-22T13:23:42.468Z,19.41
2023-02-22T13:26:25.102Z,18.84
2023-02-22T13:29:04.869Z,18.12
2023-02-22T13:32:02.779Z,18.47
2023-02-22T13:34:45.576Z,18.43
2023-02-22T13:37:31.893Z,18.43
2023-02-22T13:40:22.581Z,18.53
2023-02-22T13:42:50.107Z,16.19
2023-02-22T13:45:36.325Z,17.52
2023-02-22T13:48:06.523Z,15.82
2023-02-22T13:50:33.836Z,15.03
2023-02-22T13:53:03.090Z,15.19
2023-02-22T13:55:32.830Z,16.44
2023-02-22T13:58:04.792Z,15.96
2023-02-22T14:00:52.870Z,15.15
2023-02-22T14:03:36.613Z,17.24
2023-02-22T14:06:04.796Z,17.83
2023-02-22T14:08:33.777Z,16.95
2023-02-22T14:11:01.397Z,17.20
2023-02-22T14:13:29.244Z,17.94
2023-02-22T14:16:00.196Z,18.52
2023-02-22T14:18:31.406Z,18.81
2023-02-22T14:21:15.779Z,19.03
2023-02-22T14:23:43.443Z,16.44
2023-02-22T14:26:14.198Z,18.29
2023-02-22T14:28:52.133Z,17.67
2023-02-22T14:31:34.888Z,15.78
2023-02-22T14:34:03.002Z,15.30
2023-02-22T14:36:51.351Z,16.25
2023-02-22T14:39:18.549Z,16.31
2023-02-22T14:41:48.930Z,17.21
2023-02-22T14:44:19.867Z,16.63
2023-02-22T14:46:50.121Z,17.40
2023-02-22T14:49:19.015Z,17.53
2023-02-22T14:51:53.430Z,17.88
2023-02-22T14:54:36.853Z,19.33
2023-02-22T14:57:15.606Z,19.74
2023-02-22T15:00:20.341Z,18.94
2023-02-22T15:02:48.476Z,18.67
2023-02-22T15:05:16.908Z,18.67
2023-02-22T15:07:54.613Z,17.48
2023-02-22T15:10:28.346Z,18.40
2023-02-22T15:13:08.657Z,17.75
2023-02-22T15:15:37.921Z,16.99
2023-02-22T15:18:06.712Z,17.00
2023-02-22T15:20:35.122Z,17.66
2023-02-22T15:23:02.647Z,18.81
2023-02-22T15:25:31.648Z,17.90
2023-02-22T15:28:03.481Z,17.42
2023-02-22T15:30:33.049Z,18.24
2023-02-22T15:33:14.996Z,18.80
2023-02-22T15:35:42.643Z,20.27
2023-02-22T15:38:12.847Z,19.50
2023-02-22T15:40:43.290Z,18.45
2023-02-22T15:43:28.668Z,18.46
2023-02-22T15:45:57.038Z,18.42
2023-02-22T15:48:26.410Z,18.36
2023-02-22T15:51:00.558Z,18.07
2023-02-22T15:53:28.882Z,17.28
2023-02-22T15:55:56.610Z,17.54
2023-02-22T15:58:25.386Z,17.03
2023-02-22T16:01:03.939Z,17.14
2023-02-22T16:03:45.114Z,16.69
2023-02-22T16:06:13.764Z,18.22
2023-02-22T16:08:54.285Z,18.26
2023-02-22T16:11:22.278Z,18.06
2023-02-22T16:13:53.336Z,18.87
2023-02-22T16:16:32.360Z,19.19
2023-02-22T16:19:19.005Z,19.19
2023-02-22T16:21:53.935Z,19.22
2023-02-22T16:24:29.039Z,18.80
2023-02-22T16:27:15.832Z,18.97
2023-02-22T16:29:45.979Z,19.08
2023-02-22T16:32:15.570Z,19.41
2023-02-22T16:34:48.144Z,19.67
2023-02-22T16:37:23.523Z,19.62
2023-02-22T16:39:51.899Z,19.41
2023-02-22T16:42:25.594Z,19.51
2023-02-22T16:44:53.940Z,19.11
2023-02-22T16:47:23.018Z,18.92
2023-02-22T16:49:52.894Z,19.21
2023-02-22T16:52:21.678Z,19.44
2023-02-22T16:54:51.987Z,19.51
2023-02-22T16:57:23.096Z,19.25
2023-02-22T16:59:52.750Z,19.32
2023-02-22T17:02:21.821Z,18.97
2023-02-22T17:04:49.989Z,19.01
2023-02-22T17:07:30.089Z,19.19
2023-02-22T17:09:58.792Z,19.23
2023-02-22T17:12:29.932Z,19.22
2023-02-22T17:14:57.219Z,17.88
2023-02-22T17:17:24.510Z,18.32
2023-02-22T17:19:52.791Z,18.85
2023-02-22T17:22:21.965Z,18.39
2023-02-22T17:24:50.300Z,17.19
2023-02-22T17:27:18.822Z,16.52
2023-02-22T17:29:49.463Z,15.07
2023-02-22T17:32:17.192Z,15.46
2023-02-22T17:34:53.837Z,15.54
2023-02-22T17:37:22.832Z,16.33
2023-02-22T17:39:51.183Z,15.63
2023-02-22T17:42:20.374Z,15.71
2023-02-22T17:44:48.544Z,15.33
2023-02-22T17:47:17.897Z,15.77
2023-02-22T17:49:45.946Z,17.33
2023-02-22T17:52:16.218Z,17.14
2023-02-22T17:54:44.626Z,16.78
2023-02-22T17:57:12.788Z,15.47
2023-02-22T17:59:40.735Z,15.17
2023-02-22T18:02:11.126Z,15.70
2023-02-22T18:04:40.554Z,15.59
2023-02-22T18:07:09.701Z,16.13
2023-02-22T18:09:38.006Z,17.16
2023-02-22T18:12:06.666Z,17.69
2023-02-22T18:14:35.146Z,16.54
2023-02-22T18:17:03.195Z,15.35
2023-02-22T18:19:31.789Z,15.29
2023-02-22T18:22:00.879Z,15.54
2023-02-22T18:24:31.866Z,16.06
2023-02-22T18:26:59.848Z,17.35
2023-02-22T18:29:29.417Z,17.33
2023-02-22T18:31:57.301Z,17.61
2023-02-22T18:34:25.495Z,17.61
2023-02-22T18:36:53.530Z,17.08
2023-02-22T18:39:25.231Z,17.09
2023-02-22T18:41:54.743Z,17.57
2023-02-22T18:44:24.728Z,17.71
2023-02-22T18:46:54.569Z,17.56
2023-02-22T18:49:23.175Z,17.59
2023-02-22T18:51:51.960Z,16.89
2023-02-22T18:54:23.326Z,16.83
2023-02-22T18:56:51.916Z,17.40
2023-02-22T18:59:20.890Z,17.57
2023-02-22T19:01:49.700Z,17.62
2023-02-22T19:04:21.560Z,17.38
2023-02-22T19:06:51.481Z,17.62
2023-02-22T19:09:20.988Z,17.24
2023-02-22T19:11:50.985Z,17.68
2023-02-22T19:14:20.049Z,17.47
2023-02-22T19:16:51.573Z,17.52
2023-02-22T19:19:26.752Z,17.54
2023-02-22T19:21:56.888Z,16.93
2023-02-22T19:24:25.975Z,16.24
2023-02-22T19:26:58.015Z,15.59
2023-02-22T19:29:27.821Z,15.83
2023-02-22T19:31:57.434Z,15.75
2023-02-22T19:34:32.961Z,15.34
2023-02-22T19:37:02.330Z,15.48
2023-02-22T19:39:30.248Z,15.65
2023-02-22T19:41:58.878Z,15.67
2023-02-22T19:44:28.252Z,15.51
2023-02-22T19:46:57.934Z,15.33
2023-02-22T19:49:28.425Z,16.05
2023-02-22T19:51:58.624Z,16.17
2023-02-22T19:54:27.888Z,15.61
2023-02-22T19:56:58.622Z,16.60
2023-02-22T19:59:27.488Z,16.83
2023-02-22T20:01:58.154Z,17.18
2023-02-22T20:04:30.614Z,17.20
2023-02-22T20:06:59.363Z,17.29
2023-02-22T20:09:30.394Z,16.73
2023-02-22T20:11:59.416Z,16.85
2023-02-22T20:14:29.018Z,16.97
2023-02-22T20:17:01.162Z,16.75
2023-02-22T20:19:30.469Z,16.69
2023-02-22T20:22:03.602Z,17.15
2023-02-22T20:24:34.139Z,17.06
2023-02-22T20:27:02.832Z,17.29
2023-02-22T20:29:32.425Z,17.29
2023-02-22T20:32:02.072Z,17.06
2023-02-22T20:34:33.007Z,16.98
2023-02-22T20:37:02.517Z,17.23
2023-02-22T20:39:32.954Z,17.51
2023-02-22T20:42:03.883Z,16.89
2023-02-22T20:44:32.301Z,17.02
2023-02-22T20:47:00.996Z,17.08
2023-02-22T20:49:30.820Z,16.64
2023-02-22T20:51:59.272Z,16.54
2023-02-22T20:54:28.132Z,15.95
2023-02-22T20:56:58.542Z,16.39
2023-02-22T20:59:29.179Z,16.41
2023-02-22T21:01:58.226Z,16.05
2023-02-22T21:04:27.513Z,15.83
2023-02-22T21:06:56.006Z,15.94
2023-02-22T21:09:24.937Z,15.98
2023-02-22T21:11:55.686Z,15.33
2023-02-22T21:14:26.742Z,15.34
2023-02-22T21:16:56.353Z,15.69
2023-02-22T21:19:28.006Z,15.92
2023-02-22T21:21:57.146Z,16.08
2023-02-22T21:24:26.676Z,16.56
2023-02-22T21:26:58.803Z,16.45
2023-02-22T21:29:28.395Z,17.14
2023-02-22T21:31:57.791Z,16.78
2023-02-22T21:34:27.627Z,16.76
2023-02-22T21:36:58.620Z,15.96
2023-02-22T21:39:29.023Z,16.37
2023-02-22T21:42:00.457Z,15.03
2023-02-22T21:44:28.387Z,15.77
2023-02-22T21:46:55.990Z,16.46
2023-02-22T21:49:25.428Z,16.02
2023-02-22T21:51:53.141Z,16.34
2023-02-22T21:54:20.746Z,16.65
2023-02-22T21:56:48.658Z,16.68
2023-02-22T21:59:19.080Z,16.84
2023-02-22T22:01:56.361Z,16.04
2023-02-22T22:04:27.452Z,16.27
2023-02-22T22:06:56.611Z,16.12
2023-02-22T22:09:24.571Z,16.25
2023-02-22T22:11:58.381Z,16.45
2023-02-22T22:14:26.074Z,15.89
2023-02-22T22:16:54.666Z,16.30
2023-02-22T22:19:23.018Z,15.88
2023-02-22T22:21:53.465Z,15.86
2023-02-22T22:24:21.405Z,15.75
2023-02-22T22:26:51.240Z,16.26
2023-02-22T22:29:18.809Z,16.30
2023-02-22T22:31:46.140Z,15.84
2023-02-22T22:34:13.405Z,16.12
2023-02-22T22:36:40.987Z,16.06
2023-02-22T22:39:13.059Z,16.52
2023-02-22T22:41:41.376Z,15.58
2023-02-22T22:44:09.769Z,16.25
2023-02-22T22:46:41.029Z,15.97
2023-02-22T22:49:09.398Z,15.56
2023-02-22T22:51:36.685Z,16.30
2023-02-22T22:54:05.733Z,15.32
2023-02-22T22:56:35.772Z,15.31
2023-02-22T22:59:09.976Z,15.18
2023-02-22T23:01:44.413Z,15.88
2023-02-22T23:04:13.340Z,15.80
2023-02-22T23:06:43.786Z,16.65
2023-02-22T23:09:18.469Z,16.53
2023-02-22T23:11:50.872Z,16.09
2023-02-22T23:14:19.881Z,16.11
2023-02-22T23:16:47.911Z,16.16
2023-02-22T23:19:19.339Z,15.79
2023-02-22T23:21:48.232Z,15.89
2023-02-22T23:24:16.589Z,15.31
2023-02-22T23:26:48.709Z,15.89
2023-02-22T23:29:16.948Z,16.51
2023-02-22T23:31:44.257Z,15.02
2023-02-22T23:34:11.506Z,16.05
2023-02-22T23:36:39.225Z,16.29
2023-02-22T23:39:09.352Z,16.12
2023-02-22T23:41:36.585Z,16.11
2023-02-22T23:44:08.217Z,15.24
2023-02-22T23:46:36.522Z,15.48
2023-02-22T23:49:04.255Z,15.66
2023-02-22T23:51:39.297Z,14.92
2023-02-22T23:54:07.435Z,15.50
2023-02-22T23:56:35.518Z,14.55
2023-02-22T23:59:09.241Z,14.83
